Saint-Lin, Canada
Current Conditions -  °F | °C
As of 12:00 AM on Wednesday 22 Oct 2014 (Local Time) from CYMX Reporting Station
Overcast Overcast  
Wind Chill: 39°   Ceiling: 6000
Heat Index: 45°   Visibility: 25mi
Dew Point: 30°   Wind: 12mph
Humidity: 57%   Direction: 40°NE
Pressure: 30.2"   Gusts: 20mph
Location:  45.85°N, 73.77°W
Report Text: CYMX 220400Z 04010G17KT 340V100 25SM BKN060 OVC140 07/M01 A3020 RMK SC6AC2 SLP229
Loading
Personal Weather Stations






























Interactive Weather Map
Tropical Storm Tracking
New forecast layout! Learn more

10-Day Weather Forecast

Advertisements
Track Severe Weather on mobile